createdAt,value
2017-11-08T00:01:52.540Z,69.60
2017-11-08T00:04:20.051Z,69.60
2017-11-08T00:06:47.599Z,69.70
2017-11-08T00:09:15.098Z,69.70
2017-11-08T00:11:43.014Z,69.80
2017-11-08T00:14:10.536Z,69.80
2017-11-08T00:16:38.801Z,69.70
2017-11-08T00:19:07.083Z,69.80
2017-11-08T00:21:41.059Z,70.40
2017-11-08T00:24:12.756Z,69.80
2017-11-08T00:26:41.061Z,69.80
2017-11-08T00:29:09.349Z,69.90
2017-11-08T00:31:37.633Z,69.90
2017-11-08T00:36:35.546Z,70.20
2017-11-08T00:39:03.476Z,69.60
2017-11-08T00:41:31.023Z,69.70
2017-11-08T00:43:59.682Z,69.70
2017-11-08T00:46:27.214Z,69.60
2017-11-08T00:48:54.759Z,69.50
2017-11-08T00:51:22.259Z,69.50
2017-11-08T00:53:49.847Z,69.70
2017-11-08T00:56:17.400Z,69.60
2017-11-08T00:58:44.935Z,69.60
2017-11-08T01:01:12.521Z,69.60
2017-11-08T01:03:40.878Z,69.60
2017-11-08T01:06:08.451Z,69.50
2017-11-08T01:08:35.956Z,69.40
2017-11-08T01:11:04.253Z,69.40
2017-11-08T01:13:31.779Z,69.40
2017-11-08T01:16:00.073Z,69.50
2017-11-08T01:18:27.639Z,69.60
2017-11-08T01:20:55.183Z,69.50
2017-11-08T01:23:22.694Z,69.50
2017-11-08T01:25:50.250Z,69.50
2017-11-08T01:28:18.166Z,69.50
2017-11-08T01:30:45.801Z,69.50
2017-11-08T01:33:13.759Z,69.40
2017-11-08T01:35:42.418Z,69.30
2017-11-08T01:40:43.538Z,69.40
2017-11-08T01:43:12.551Z,69.40
2017-11-08T01:45:41.591Z,70.00
2017-11-08T01:48:09.519Z,69.40
2017-11-08T01:50:38.998Z,69.50
2017-11-08T01:53:06.902Z,69.40
2017-11-08T01:55:36.766Z,69.40
2017-11-08T01:58:04.299Z,69.30
2017-11-08T02:00:32.218Z,69.20
2017-11-08T02:02:59.828Z,69.20
2017-11-08T02:05:27.759Z,69.20
2017-11-08T02:07:55.262Z,69.20
2017-11-08T02:10:22.802Z,69.40
2017-11-08T02:12:50.343Z,69.30
2017-11-08T02:15:19.375Z,69.20
2017-11-08T02:17:55.443Z,69.20
2017-11-08T02:20:24.497Z,69.20
2017-11-08T02:22:52.027Z,69.30
2017-11-08T02:25:19.575Z,69.20
2017-11-08T02:27:47.102Z,69.10
2017-11-08T02:30:15.042Z,69.20
2017-11-08T02:32:44.102Z,69.10
2017-11-08T02:35:12.370Z,69.10
2017-11-08T02:37:41.784Z,69.70
2017-11-08T02:40:09.431Z,69.00
2017-11-08T02:42:36.968Z,69.00
2017-11-08T02:45:07.698Z,69.10
2017-11-08T02:47:35.242Z,69.20
2017-11-08T02:50:03.530Z,69.70
2017-11-08T02:55:02.885Z,69.10
2017-11-08T02:57:31.188Z,69.00
2017-11-08T02:59:58.695Z,69.20
2017-11-08T03:02:29.998Z,69.00
2017-11-08T03:04:57.526Z,69.10
2017-11-08T03:07:25.059Z,69.10
2017-11-08T03:09:52.589Z,69.10
2017-11-08T03:12:20.557Z,69.00
2017-11-08T03:14:49.201Z,68.90
2017-11-08T03:17:16.782Z,69.00
2017-11-08T03:19:44.285Z,68.90
2017-11-08T03:22:11.823Z,68.90
2017-11-08T03:24:39.782Z,68.80
2017-11-08T03:27:07.283Z,68.90
2017-11-08T03:29:35.555Z,68.90
2017-11-08T03:34:31.994Z,68.90
2017-11-08T03:37:00.290Z,69.50
2017-11-08T03:39:28.266Z,69.00
2017-11-08T03:41:56.566Z,68.90
2017-11-08T03:44:24.071Z,68.90
2017-11-08T03:47:02.053Z,68.90
2017-11-08T03:49:29.570Z,69.00
2017-11-08T03:51:57.115Z,69.00
2017-11-08T03:54:24.688Z,69.00
2017-11-08T03:56:53.354Z,69.00
2017-11-08T03:59:21.642Z,68.90
2017-11-08T04:01:49.196Z,68.90
2017-11-08T04:04:16.723Z,68.80
2017-11-08T04:06:44.235Z,68.80
2017-11-08T04:09:11.791Z,68.80
2017-11-08T04:11:39.318Z,68.70
2017-11-08T04:16:36.546Z,69.30
2017-11-08T04:19:04.074Z,68.70
2017-11-08T04:21:31.579Z,68.90
2017-11-08T04:23:59.119Z,68.80
2017-11-08T04:26:27.407Z,68.80
2017-11-08T04:28:55.370Z,68.80
2017-11-08T04:31:22.938Z,68.90
2017-11-08T04:33:50.443Z,68.80
2017-11-08T04:36:17.995Z,68.80
2017-11-08T04:41:14.495Z,68.80
2017-11-08T04:43:42.026Z,68.80
2017-11-08T04:46:09.585Z,68.70
2017-11-08T04:48:37.094Z,68.80
2017-11-08T04:51:04.623Z,68.90
2017-11-08T04:53:32.193Z,68.90
2017-11-08T04:56:00.473Z,68.80
2017-11-08T04:58:27.990Z,68.80
2017-11-08T05:00:55.675Z,68.70
2017-11-08T05:03:23.223Z,68.80
2017-11-08T05:05:51.115Z,68.80
2017-11-08T05:10:47.542Z,68.70
2017-11-08T05:13:15.467Z,68.80
2017-11-08T05:15:43.786Z,69.30
2017-11-08T05:18:11.305Z,68.70
2017-11-08T05:20:38.815Z,68.60
2017-11-08T05:23:07.139Z,68.70
2017-11-08T05:25:34.686Z,68.70
2017-11-08T05:28:02.198Z,68.80
2017-11-08T05:30:29.730Z,68.80
2017-11-08T05:32:58.746Z,68.80
2017-11-08T05:35:26.266Z,68.70
2017-11-08T05:37:54.193Z,68.70
2017-11-08T05:40:22.114Z,68.60
2017-11-08T05:42:50.782Z,68.40
2017-11-08T05:45:19.114Z,68.60
2017-11-08T05:47:46.630Z,68.50
2017-11-08T05:50:14.139Z,68.70
2017-11-08T05:52:42.762Z,68.50
2017-11-08T05:55:10.292Z,68.50
2017-11-08T05:57:38.258Z,68.50
2017-11-08T06:00:06.568Z,68.50
2017-11-08T06:05:02.959Z,68.60
2017-11-08T06:07:30.906Z,68.70
2017-11-08T06:09:58.413Z,68.70
2017-11-08T06:12:26.825Z,68.70
2017-11-08T06:14:54.367Z,68.70
2017-11-08T06:17:21.886Z,68.70
2017-11-08T06:19:50.939Z,68.80
2017-11-08T06:22:19.306Z,69.30
2017-11-08T06:24:47.971Z,68.60
2017-11-08T06:27:15.882Z,68.50
2017-11-08T06:29:43.438Z,68.60
2017-11-08T06:32:11.732Z,68.60
2017-11-08T06:34:40.031Z,69.10
2017-11-08T06:37:09.107Z,68.60
2017-11-08T06:39:37.382Z,68.60
2017-11-08T06:42:06.393Z,68.60
2017-11-08T06:44:33.946Z,68.60
2017-11-08T06:47:02.240Z,69.20
2017-11-08T06:49:29.771Z,68.60
2017-11-08T06:51:57.318Z,68.60
2017-11-08T06:56:53.738Z,68.40
2017-11-08T06:59:21.293Z,68.30
2017-11-08T07:01:49.615Z,68.40
2017-11-08T07:04:17.142Z,68.40
2017-11-08T07:06:44.739Z,68.50
2017-11-08T07:09:13.050Z,69.10
2017-11-08T07:11:41.396Z,68.70
2017-11-08T07:14:09.731Z,69.20
2017-11-08T07:16:37.656Z,68.70
2017-11-08T07:19:05.196Z,68.60
2017-11-08T07:21:33.123Z,68.50
2017-11-08T07:24:01.397Z,68.50
2017-11-08T07:26:29.094Z,68.60
2017-11-08T07:28:57.016Z,68.70
2017-11-08T07:31:24.546Z,68.60
2017-11-08T07:33:52.449Z,68.60
2017-11-08T07:36:20.398Z,68.70
2017-11-08T07:38:47.991Z,68.80
2017-11-08T07:43:45.182Z,69.30
2017-11-08T07:46:12.686Z,68.80
2017-11-08T07:48:40.275Z,66.30
2017-11-08T07:51:08.223Z,66.10
2017-11-08T07:53:36.510Z,68.40
2017-11-08T07:56:04.013Z,67.60
2017-11-08T07:58:31.945Z,67.60
2017-11-08T08:01:00.235Z,68.60
2017-11-08T08:03:28.596Z,68.40
2017-11-08T08:05:56.147Z,68.40
2017-11-08T08:08:24.811Z,69.50
2017-11-08T08:13:28.226Z,68.30
2017-11-08T08:15:55.740Z,67.20
2017-11-08T08:18:23.678Z,62.50
2017-11-08T08:20:54.930Z,64.70
2017-11-08T08:23:23.966Z,64.70
2017-11-08T08:28:23.350Z,63.80
2017-11-08T08:30:51.680Z,63.00
2017-11-08T08:33:20.712Z,62.80
2017-11-08T08:35:49.725Z,63.40
2017-11-08T08:40:46.161Z,63.30
2017-11-08T08:43:13.667Z,66.00
2017-11-08T08:45:41.618Z,66.10
2017-11-08T08:48:09.143Z,61.50
2017-11-08T08:50:36.650Z,61.10
2017-11-08T08:53:04.567Z,62.00
2017-11-08T08:55:33.223Z,62.50
2017-11-08T08:58:01.154Z,61.30
2017-11-08T09:02:57.598Z,63.70
2017-11-08T09:05:25.915Z,66.10
2017-11-08T09:07:54.226Z,66.10
2017-11-08T09:10:21.727Z,66.30
2017-11-08T09:15:18.118Z,66.10
2017-11-08T09:17:46.042Z,66.30
2017-11-08T09:20:13.567Z,66.50
2017-11-08T09:22:41.946Z,66.60
2017-11-08T09:25:10.224Z,66.70
2017-11-08T09:27:39.258Z,66.70
2017-11-08T09:30:09.383Z,66.80
2017-11-08T09:32:37.006Z,66.60
2017-11-08T09:35:10.246Z,66.60
2017-11-08T09:37:37.802Z,66.60
2017-11-08T09:40:05.342Z,66.80
2017-11-08T09:42:35.802Z,65.90
2017-11-08T09:45:04.463Z,64.30
2017-11-08T09:47:32.402Z,64.20
2017-11-08T09:50:00.885Z,63.80
2017-11-08T09:52:28.791Z,63.90
2017-11-08T09:54:56.731Z,63.60
2017-11-08T09:57:26.225Z,63.10
2017-11-08T09:59:53.790Z,63.40
2017-11-08T10:02:21.306Z,63.50
2017-11-08T10:04:49.626Z,62.90
2017-11-08T10:07:18.658Z,62.80
2017-11-08T10:09:52.342Z,64.90
2017-11-08T10:12:20.259Z,63.20
2017-11-08T10:14:47.888Z,63.00
2017-11-08T10:17:16.174Z,65.40
2017-11-08T10:19:43.698Z,65.50
2017-11-08T10:22:11.222Z,65.60
2017-11-08T10:24:42.698Z,65.60
2017-11-08T10:27:10.215Z,65.50
2017-11-08T10:29:38.885Z,65.60
2017-11-08T10:32:06.834Z,65.50
2017-11-08T10:34:35.132Z,65.60
2017-11-08T10:37:03.059Z,65.70
2017-11-08T10:39:30.614Z,65.70
2017-11-08T10:41:58.153Z,65.60
2017-11-08T10:44:25.642Z,65.70
2017-11-08T10:46:53.196Z,63.60
2017-11-08T10:49:20.727Z,62.50
2017-11-08T10:51:48.697Z,62.20
2017-11-08T10:54:17.042Z,64.30
2017-11-08T10:56:44.579Z,64.20
2017-11-08T10:59:18.943Z,62.50
2017-11-08T11:01:46.875Z,61.90
2017-11-08T11:04:14.817Z,63.20
2017-11-08T11:06:42.795Z,62.80
2017-11-08T11:09:10.327Z,62.50
2017-11-08T11:11:37.865Z,62.50
2017-11-08T11:14:11.383Z,63.70
2017-11-08T11:16:39.875Z,59.90
2017-11-08T11:19:13.263Z,60.30
2017-11-08T11:21:40.798Z,60.60
2017-11-08T11:24:12.350Z,60.20
2017-11-08T11:26:41.646Z,60.30
2017-11-08T11:29:10.319Z,60.30
2017-11-08T11:31:38.324Z,60.00
2017-11-08T11:34:07.027Z,59.90
2017-11-08T11:36:35.363Z,60.20
2017-11-08T11:39:02.907Z,60.30
2017-11-08T11:41:31.262Z,61.00
2017-11-08T11:43:58.815Z,60.50
2017-11-08T11:46:26.366Z,60.30
2017-11-08T11:48:54.332Z,60.50
2017-11-08T11:51:25.775Z,60.20
2017-11-08T11:53:53.364Z,60.20
2017-11-08T11:56:21.407Z,60.30
2017-11-08T11:58:48.942Z,60.10
2017-11-08T12:01:17.299Z,60.00
2017-11-08T12:03:45.234Z,60.40
2017-11-08T12:06:13.177Z,60.20
2017-11-08T12:08:41.142Z,59.80
2017-11-08T12:11:09.448Z,59.60
2017-11-08T12:13:36.991Z,59.50
2017-11-08T12:16:04.964Z,59.80
2017-11-08T12:18:32.511Z,59.80
2017-11-08T12:21:00.084Z,60.20
2017-11-08T12:23:27.653Z,61.20
2017-11-08T12:25:56.365Z,62.70
2017-11-08T12:28:23.906Z,62.80
2017-11-08T12:30:51.476Z,63.00
2017-11-08T12:33:19.011Z,63.10
2017-11-08T12:35:48.091Z,63.20
2017-11-08T12:38:15.664Z,63.30
2017-11-08T12:40:43.196Z,63.30
2017-11-08T12:43:13.676Z,63.20
2017-11-08T12:45:41.238Z,63.40
2017-11-08T12:48:09.916Z,63.30
2017-11-08T12:50:37.451Z,63.40
2017-11-08T12:53:05.067Z,60.70
2017-11-08T12:55:32.635Z,61.20
2017-11-08T12:58:01.700Z,63.10
2017-11-08T13:00:29.274Z,63.40
2017-11-08T13:02:57.609Z,63.60
2017-11-08T13:05:30.663Z,63.50
2017-11-08T13:10:30.655Z,64.10
2017-11-08T13:12:58.201Z,63.60
2017-11-08T13:15:25.747Z,63.70
2017-11-08T13:17:53.726Z,63.60
2017-11-08T13:20:22.415Z,63.90
2017-11-08T13:22:49.956Z,63.80
2017-11-08T13:25:17.949Z,63.90
2017-11-08T13:27:46.255Z,64.00
2017-11-08T13:30:14.563Z,64.10
2017-11-08T13:32:42.937Z,64.80
2017-11-08T13:35:11.978Z,64.20
2017-11-08T13:37:40.293Z,64.40
2017-11-08T13:40:08.663Z,65.10
2017-11-08T13:42:36.209Z,64.50
2017-11-08T13:45:03.755Z,64.50
2017-11-08T13:47:31.724Z,64.60
2017-11-08T13:49:59.704Z,64.60
2017-11-08T13:52:28.039Z,64.50
2017-11-08T13:54:56.775Z,64.60
2017-11-08T14:02:22.167Z,64.70
2017-11-08T14:07:19.369Z,65.00
2017-11-08T14:09:47.451Z,65.00
2017-11-08T14:12:15.000Z,65.00
2017-11-08T14:14:43.677Z,65.00
2017-11-08T14:19:40.147Z,65.10
2017-11-08T14:22:08.447Z,65.20
2017-11-08T14:24:37.166Z,65.10
2017-11-08T14:27:05.486Z,64.80
2017-11-08T14:29:34.536Z,64.60
2017-11-08T14:34:30.958Z,64.60
2017-11-08T14:36:58.904Z,64.60
2017-11-08T14:39:27.237Z,64.60
2017-11-08T14:41:58.048Z,66.00
2017-11-08T14:44:25.596Z,65.00
2017-11-08T14:46:53.195Z,65.20
2017-11-08T14:49:21.129Z,65.20
2017-11-08T14:51:49.569Z,65.30
2017-11-08T14:54:17.527Z,65.20
2017-11-08T14:56:45.844Z,65.20
2017-11-08T14:59:16.227Z,65.10
2017-11-08T15:04:13.335Z,65.20
2017-11-08T15:06:41.619Z,65.20
2017-11-08T15:09:09.215Z,65.30
2017-11-08T15:11:37.904Z,65.30
2017-11-08T15:27:26.284Z,65.30
2017-11-08T15:30:08.516Z,65.40
2017-11-08T15:32:37.027Z,65.50
2017-11-08T15:35:04.928Z,65.40
2017-11-08T15:37:32.846Z,65.40
2017-11-08T15:40:00.391Z,65.50
2017-11-08T15:42:28.665Z,65.50
2017-11-08T15:44:56.175Z,65.40
2017-11-08T15:47:24.871Z,65.50
2017-11-08T15:49:55.428Z,65.30
2017-11-08T15:52:23.327Z,65.40
2017-11-08T15:54:51.240Z,65.40
2017-11-08T15:57:18.787Z,65.30
2017-11-08T15:59:47.326Z,65.40
2017-11-08T16:02:20.089Z,65.50
2017-11-08T16:04:47.646Z,65.30
2017-11-08T16:07:16.951Z,65.30
2017-11-08T16:09:44.821Z,65.40
2017-11-08T16:12:12.412Z,65.40
2017-11-08T16:14:39.943Z,65.30
2017-11-08T16:17:12.394Z,65.30
2017-11-08T16:19:40.710Z,65.30
2017-11-08T16:22:08.639Z,65.20
2017-11-08T16:24:36.188Z,65.40
2017-11-08T16:27:04.112Z,65.30
2017-11-08T16:29:32.413Z,65.30
2017-11-08T16:32:00.764Z,65.80
2017-11-08T16:34:28.308Z,65.30
2017-11-08T16:36:56.241Z,65.30
2017-11-08T16:39:24.583Z,65.20
2017-11-08T16:41:52.092Z,65.20
2017-11-08T16:44:20.028Z,65.30
2017-11-08T16:46:48.740Z,65.40
2017-11-08T16:49:16.279Z,65.30
2017-11-08T16:51:44.599Z,65.30
2017-11-08T16:54:12.558Z,65.30
2017-11-08T16:59:08.996Z,65.30
2017-11-08T17:01:36.560Z,65.30
2017-11-08T17:04:04.076Z,65.30
2017-11-08T17:06:31.604Z,65.30
2017-11-08T17:08:59.744Z,65.30
2017-11-08T17:11:27.448Z,65.40
2017-11-08T17:13:55.756Z,65.40
2017-11-08T17:16:24.108Z,65.40
2017-11-08T17:18:52.033Z,65.40
2017-11-08T17:23:48.427Z,65.40
2017-11-08T17:26:15.947Z,65.30
2017-11-08T17:28:43.476Z,65.30
2017-11-08T17:31:11.838Z,65.90
2017-11-08T17:33:39.377Z,65.40
2017-11-08T17:36:06.912Z,65.40
2017-11-08T17:38:34.540Z,65.30
2017-11-08T17:41:02.808Z,66.00
2017-11-08T17:43:30.324Z,65.30
2017-11-08T17:45:57.871Z,65.30
2017-11-08T17:48:25.781Z,65.40
2017-11-08T17:50:53.289Z,65.30
2017-11-08T17:53:20.860Z,65.40
2017-11-08T17:55:49.137Z,65.40
2017-11-08T17:58:17.412Z,65.30
2017-11-08T18:05:43.767Z,65.00
2017-11-08T18:08:11.356Z,64.90
2017-11-08T18:10:38.891Z,65.10
2017-11-08T18:13:07.559Z,65.10
2017-11-08T18:15:35.129Z,65.20
2017-11-08T18:18:02.696Z,65.20
2017-11-08T18:20:30.233Z,65.40
2017-11-08T18:22:58.529Z,66.00
2017-11-08T18:25:26.418Z,65.30
2017-11-08T18:27:54.712Z,65.30
2017-11-08T18:30:23.040Z,65.30
2017-11-08T18:32:51.331Z,66.00
2017-11-08T18:35:18.883Z,65.40
2017-11-08T18:37:46.574Z,65.30
2017-11-08T18:40:14.498Z,65.30
2017-11-08T18:42:42.799Z,66.00
2017-11-08T18:45:10.373Z,65.30
2017-11-08T18:47:39.053Z,65.30
2017-11-08T18:50:06.583Z,65.30
2017-11-08T18:55:04.778Z,65.30
2017-11-08T18:57:32.709Z,65.30
2017-11-08T19:00:01.130Z,65.10
2017-11-08T19:02:28.672Z,65.20
2017-11-08T19:04:57.554Z,65.10
2017-11-08T19:07:25.188Z,65.20
2017-11-08T19:09:52.840Z,65.20
2017-11-08T19:12:20.380Z,65.30
2017-11-08T19:14:48.420Z,65.30
2017-11-08T19:17:16.746Z,65.30
2017-11-08T19:19:44.345Z,65.30
2017-11-08T19:22:12.294Z,65.30
2017-11-08T19:24:40.933Z,65.30
2017-11-08T19:27:08.718Z,65.10
2017-11-08T19:29:36.998Z,65.20
2017-11-08T19:32:06.153Z,65.20
2017-11-08T19:34:34.519Z,65.80
2017-11-08T19:37:02.146Z,65.30
2017-11-08T19:39:29.723Z,65.30
2017-11-08T19:41:57.281Z,65.40
2017-11-08T19:44:24.896Z,65.40
2017-11-08T19:46:52.434Z,65.40
2017-11-08T19:51:48.856Z,65.40
2017-11-08T19:54:16.392Z,65.30
2017-11-08T19:56:43.950Z,65.30
2017-11-08T20:01:40.423Z,65.30
2017-11-08T20:04:08.736Z,65.40
2017-11-08T20:06:37.829Z,65.40
2017-11-08T20:09:06.130Z,66.00
2017-11-08T20:11:33.670Z,65.40
2017-11-08T20:14:02.005Z,66.00
2017-11-08T20:16:29.548Z,65.50
2017-11-08T20:18:57.464Z,65.40
2017-11-08T20:21:25.015Z,65.50
2017-11-08T20:23:52.520Z,65.50
2017-11-08T20:26:20.057Z,65.50
2017-11-08T20:28:49.537Z,65.60
2017-11-08T20:31:17.075Z,65.50
2017-11-08T20:33:44.617Z,65.50
2017-11-08T20:36:12.183Z,65.70
2017-11-08T20:41:08.979Z,65.90
2017-11-08T20:43:37.391Z,66.00
2017-11-08T20:46:04.981Z,66.50
2017-11-08T20:48:32.519Z,66.50
2017-11-08T20:51:00.100Z,66.50
2017-11-08T20:53:28.419Z,66.70
2017-11-08T20:58:25.297Z,66.90
2017-11-08T21:00:52.824Z,67.10
2017-11-08T21:03:20.323Z,67.00
2017-11-08T21:05:48.999Z,67.00
2017-11-08T21:08:17.663Z,67.10
2017-11-08T21:10:45.192Z,67.20
2017-11-08T21:13:13.141Z,67.30
2017-11-08T21:15:41.841Z,67.20
2017-11-08T21:18:09.413Z,67.10
2017-11-08T21:20:37.413Z,67.30
2017-11-08T21:23:05.717Z,67.30
2017-11-08T21:25:34.440Z,67.40
2017-11-08T21:28:02.044Z,67.60
2017-11-08T21:30:29.613Z,67.40
2017-11-08T21:35:27.585Z,67.50
2017-11-08T21:37:56.833Z,67.50
2017-11-08T21:40:25.159Z,67.50
2017-11-08T21:42:52.741Z,67.60
2017-11-08T21:45:21.011Z,68.10
2017-11-08T21:47:48.540Z,67.60
2017-11-08T21:50:16.882Z,67.80
2017-11-08T21:55:13.270Z,67.80
2017-11-08T21:57:40.839Z,67.70
2017-11-08T22:00:08.387Z,67.90
2017-11-08T22:02:36.339Z,67.70
2017-11-08T22:05:03.907Z,68.00
2017-11-08T22:07:32.589Z,68.50
2017-11-08T22:10:00.178Z,67.90
2017-11-08T22:12:28.148Z,67.10
2017-11-08T22:17:24.593Z,67.80
2017-11-08T22:19:52.147Z,67.60
2017-11-08T22:22:19.685Z,67.70
2017-11-08T22:24:47.277Z,67.50
2017-11-08T22:27:14.852Z,67.50
2017-11-08T22:29:42.795Z,67.50
2017-11-08T22:32:10.341Z,67.50
2017-11-08T22:34:38.849Z,67.50
2017-11-08T22:37:06.373Z,67.30
2017-11-08T22:39:33.904Z,67.20
2017-11-08T22:42:02.253Z,67.90
2017-11-08T22:46:58.725Z,67.30
2017-11-08T22:49:27.441Z,67.30
2017-11-08T22:51:55.005Z,67.50
2017-11-08T22:54:23.316Z,67.30
2017-11-08T22:56:51.688Z,67.30
2017-11-08T22:59:19.229Z,67.20
2017-11-08T23:01:46.775Z,67.30
2017-11-08T23:04:14.357Z,67.30
2017-11-08T23:06:41.890Z,67.40
2017-11-08T23:09:09.787Z,67.40
2017-11-08T23:11:37.351Z,67.40
2017-11-08T23:14:05.655Z,67.40
2017-11-08T23:16:33.556Z,67.30
2017-11-08T23:19:01.868Z,67.40
2017-11-08T23:21:29.379Z,67.40
2017-11-08T23:23:57.663Z,67.90
2017-11-08T23:26:26.004Z,67.90
2017-11-08T23:28:53.903Z,67.40
2017-11-08T23:31:22.536Z,67.50
2017-11-08T23:33:50.848Z,67.40
2017-11-08T23:38:47.263Z,67.10
2017-11-08T23:41:14.827Z,67.20
2017-11-08T23:43:42.344Z,67.40
2017-11-08T23:46:11.011Z,67.40
2017-11-08T23:48:39.327Z,67.90
2017-11-08T23:51:06.839Z,67.30
2017-11-08T23:53:37.379Z,67.30
2017-11-08T23:56:06.659Z,67.40
2017-11-08T23:58:34.699Z,67.30
